This is the latest recevied weather packets stored in our database for station/object K5NWZ. If no packets are shown the sender has not sent any weather packets the latest 10 day(s).
| Time | Temp. | Humidity | Pressure | Rain* | Wind** | Luminosity | Snow |
|---|---|---|---|---|---|---|---|
| 1787608969 | 28.89° C | 47% | 1029.4 hPa | 0 mm | - | 182 W/m² | - |
| 1787608664 | 28.89° C | 44% | 1029.6 hPa | 0 mm | - | 154 W/m² | - |
| 1787608359 | 28.89° C | 50% | 1029.5 hPa | 0 mm | - | 244 W/m² | - |
| 1787608056 | 28.33° C | 56% | 1029.6 hPa | 0 mm | - | 185 W/m² | - |
| 1787607752 | 27.22° C | 49% | 1029.5 hPa | 0 mm | - | 293 W/m² | - |
| 1787607449 | 26.11° C | 55% | 1029.5 hPa | 0 mm | - | 173 W/m² | - |
| 1787607145 | 25.56° C | 61% | 1029.5 hPa | 0 mm | - | 161 W/m² | - |
| 1787606840 | 26.11° C | 62% | 1029.6 hPa | 3.05 mm | - | 287 W/m² | - |
| 1787606538 | 28.33° C | 33% | 1029.7 hPa | 3.05 mm | - | 166 W/m² | - |
| 1787606238 | 28.89° C | 42% | 1029.6 hPa | 1.27 mm | - | 123 W/m² | - |
| 1787605937 | 28.33° C | 39% | 1029.7 hPa | 1.27 mm | - | 107 W/m² | - |
| 1787605636 | 30° C | 42% | 1029.9 hPa | 0 mm | - | 92 W/m² | - |
| 1787605332 | 32.22° C | 31% | 1029.9 hPa | 0 mm | - | 78 W/m² | - |
| 1787605028 | 32.78° C | 27% | 1029.7 hPa | 0 mm | - | 87 W/m² | - |
| 1787604726 | 33.89° C | 25% | 1029.7 hPa | 0 mm | - | 136 W/m² | - |
| 1787604421 | 33.89° C | 25% | 1029.6 hPa | 0 mm | - | 192 W/m² | - |
| 1787604116 | 33.89° C | 26% | 1029.5 hPa | 0 mm | - | 247 W/m² | - |
| 1787603816 | 32.78° C | 27% | 1029.6 hPa | 0 mm | - | 781 W/m² | - |
| 1787603511 | 33.33° C | 26% | 1029.6 hPa | 0 mm | - | 214 W/m² | - |
| 1787603207 | 33.33° C | 26% | 1029.6 hPa | 0 mm | - | 416 W/m² | - |
| 1787602902 | 33.89° C | 25% | 1029.6 hPa | 0 mm | - | 829 W/m² | - |
| 1787602598 | 33.33° C | 26% | 1029.8 hPa | 0 mm | - | 821 W/m² | - |
| 1787602293 | 33.89° C | 27% | 1029.8 hPa | 0 mm | - | 821 W/m² | - |
| 1787601993 | 32.78° C | 27% | 1029.8 hPa | 0 mm | - | 829 W/m² | - |
| 1787601687 | 31.67° C | 28% | 1029.9 hPa | 0 mm | - | 681 W/m² | - |
* Rain latest hour (hover to see other rain measurements)
** Current wind speed in m/s (hover to see current wind gust speed)